sensor_id;sensor_type;location;lat;lon;timestamp;pressure;altitude;pressure_sealevel;temperature;humidity
15529;BME280;7866;52.280;9.500;2023-07-13T00:04:01;100087.50;;;19.60;66.62
15529;BME280;7866;52.280;9.500;2023-07-13T00:09:04;100095.59;;;19.67;66.15
15529;BME280;7866;52.280;9.500;2023-07-13T00:14:07;100094.16;;;19.64;66.67
15529;BME280;7866;52.280;9.500;2023-07-13T00:19:09;100102.06;;;19.66;66.14
15529;BME280;7866;52.280;9.500;2023-07-13T00:24:15;100110.41;;;19.53;66.53
15529;BME280;7866;52.280;9.500;2023-07-13T00:29:19;100111.47;;;19.40;66.56
15529;BME280;7866;52.280;9.500;2023-07-13T00:34:21;100106.31;;;19.62;66.04
15529;BME280;7866;52.280;9.500;2023-07-13T00:39:24;100106.97;;;19.45;66.49
15529;BME280;7866;52.280;9.500;2023-07-13T00:44:26;100113.47;;;19.44;66.62
15529;BME280;7866;52.280;9.500;2023-07-13T00:49:31;100114.66;;;19.49;66.43
15529;BME280;7866;52.280;9.500;2023-07-13T00:54:37;100110.97;;;19.31;66.76
15529;BME280;7866;52.280;9.500;2023-07-13T00:59:42;100101.47;;;19.22;67.26
15529;BME280;7866;52.280;9.500;2023-07-13T01:04:44;100096.25;;;19.09;67.48
15529;BME280;7866;52.280;9.500;2023-07-13T01:09:47;100096.00;;;19.10;67.68
15529;BME280;7866;52.280;9.500;2023-07-13T01:14:56;100094.59;;;19.08;66.94
15529;BME280;7866;52.280;9.500;2023-07-13T01:19:57;100101.59;;;18.85;67.45
15529;BME280;7866;52.280;9.500;2023-07-13T01:25:01;100100.53;;;18.86;67.63
15529;BME280;7866;52.280;9.500;2023-07-13T01:30:04;100096.75;;;18.69;68.52
15529;BME280;7866;52.280;9.500;2023-07-13T01:35:06;100100.34;;;18.51;69.08
15529;BME280;7866;52.280;9.500;2023-07-13T01:40:10;100101.06;;;18.58;68.48
15529;BME280;7866;52.280;9.500;2023-07-13T01:45:12;100112.44;;;18.49;68.67
15529;BME280;7866;52.280;9.500;2023-07-13T01:50:14;100102.97;;;18.39;69.18
15529;BME280;7866;52.280;9.500;2023-07-13T01:55:17;100115.16;;;18.30;69.04
15529;BME280;7866;52.280;9.500;2023-07-13T02:00:19;100108.53;;;18.26;69.19
15529;BME280;7866;52.280;9.500;2023-07-13T02:05:20;100116.47;;;18.03;69.85
15529;BME280;7866;52.280;9.500;2023-07-13T02:10:23;100115.34;;;17.92;70.21
15529;BME280;7866;52.280;9.500;2023-07-13T02:15:25;100113.38;;;17.99;70.09
15529;BME280;7866;52.280;9.500;2023-07-13T02:20:26;100122.28;;;18.06;69.84
15529;BME280;7866;52.280;9.500;2023-07-13T02:25:29;100120.53;;;17.93;69.91
15529;BME280;7866;52.280;9.500;2023-07-13T02:30:31;100126.66;;;17.82;69.13
15529;BME280;7866;52.280;9.500;2023-07-13T02:35:32;100126.88;;;18.06;69.03
15529;BME280;7866;52.280;9.500;2023-07-13T02:40:36;100131.72;;;18.04;68.70
15529;BME280;7866;52.280;9.500;2023-07-13T02:45:38;100122.06;;;18.08;68.49
15529;BME280;7866;52.280;9.500;2023-07-13T02:50:44;100111.38;;;18.13;68.39
15529;BME280;7866;52.280;9.500;2023-07-13T02:55:47;100110.38;;;18.07;68.58
15529;BME280;7866;52.280;9.500;2023-07-13T03:00:49;100109.63;;;18.00;68.75
15529;BME280;7866;52.280;9.500;2023-07-13T03:05:58;100113.38;;;17.99;68.97
15529;BME280;7866;52.280;9.500;2023-07-13T03:11:05;100120.41;;;18.07;68.50
15529;BME280;7866;52.280;9.500;2023-07-13T03:16:07;100120.53;;;17.93;69.05
15529;BME280;7866;52.280;9.500;2023-07-13T03:21:10;100126.34;;;17.97;68.64
15529;BME280;7866;52.280;9.500;2023-07-13T03:26:15;100128.09;;;18.10;67.86
15529;BME280;7866;52.280;9.500;2023-07-13T03:31:19;100124.22;;;17.99;68.87
15529;BME280;7866;52.280;9.500;2023-07-13T03:36:24;100127.00;;;17.92;69.08
15529;BME280;7866;52.280;9.500;2023-07-13T03:41:27;100123.13;;;17.82;69.13
15529;BME280;7866;52.280;9.500;2023-07-13T03:46:29;100119.94;;;18.10;68.42
15529;BME280;7866;52.280;9.500;2023-07-13T03:51:31;100117.56;;;18.20;67.91
15529;BME280;7866;52.280;9.500;2023-07-13T03:56:34;100121.16;;;18.14;68.19
15529;BME280;7866;52.280;9.500;2023-07-13T04:01:35;100131.56;;;18.17;67.95
15529;BME280;7866;52.280;9.500;2023-07-13T04:06:37;100138.34;;;18.08;68.51
15529;BME280;7866;52.280;9.500;2023-07-13T04:11:40;100145.97;;;17.92;68.51
15529;BME280;7866;52.280;9.500;2023-07-13T04:16:42;100151.25;;;17.87;68.59
15529;BME280;7866;52.280;9.500;2023-07-13T04:21:43;100157.88;;;17.91;69.02
15529;BME280;7866;52.280;9.500;2023-07-13T04:26:47;100151.59;;;18.16;68.63
15529;BME280;7866;52.280;9.500;2023-07-13T04:31:48;100156.19;;;18.15;68.85
15529;BME280;7866;52.280;9.500;2023-07-13T04:36:50;100160.41;;;18.30;68.76
15529;BME280;7866;52.280;9.500;2023-07-13T04:41:54;100156.81;;;18.36;68.53
15529;BME280;7866;52.280;9.500;2023-07-13T04:46:56;100163.75;;;18.50;68.25
15529;BME280;7866;52.280;9.500;2023-07-13T04:51:57;100163.22;;;18.60;67.89
15529;BME280;7866;52.280;9.500;2023-07-13T04:57:01;100164.75;;;18.74;67.35
15529;BME280;7866;52.280;9.500;2023-07-13T05:02:02;100171.19;;;19.10;66.24
15529;BME280;7866;52.280;9.500;2023-07-13T05:07:05;100167.84;;;19.26;66.34
15529;BME280;7866;52.280;9.500;2023-07-13T05:12:09;100171.34;;;19.87;65.01
15529;BME280;7866;52.280;9.500;2023-07-13T05:17:10;100166.03;;;19.50;64.67
15529;BME280;7866;52.280;9.500;2023-07-13T05:22:12;100163.88;;;19.82;64.26
15529;BME280;7866;52.280;9.500;2023-07-13T05:27:15;100164.25;;;20.09;63.50
15529;BME280;7866;52.280;9.500;2023-07-13T05:32:17;100163.31;;;20.27;63.81
15529;BME280;7866;52.280;9.500;2023-07-13T05:37:19;100175.97;;;20.57;62.22
15529;BME280;7866;52.280;9.500;2023-07-13T05:42:22;100165.91;;;20.69;63.11
15529;BME280;7866;52.280;9.500;2023-07-13T05:47:24;100170.31;;;20.35;63.51
15529;BME280;7866;52.280;9.500;2023-07-13T05:52:25;100171.72;;;21.01;61.70
15529;BME280;7866;52.280;9.500;2023-07-13T05:57:29;100181.53;;;21.02;62.61
15529;BME280;7866;52.280;9.500;2023-07-13T06:02:31;100187.31;;;20.65;62.38
15529;BME280;7866;52.280;9.500;2023-07-13T06:07:33;100183.88;;;20.70;62.57
15529;BME280;7866;52.280;9.500;2023-07-13T06:12:36;100203.16;;;20.45;62.01
15529;BME280;7866;52.280;9.500;2023-07-13T06:17:37;100205.53;;;20.41;62.46
15529;BME280;7866;52.280;9.500;2023-07-13T06:22:39;100191.78;;;20.83;61.09
15529;BME280;7866;52.280;9.500;2023-07-13T06:27:42;100207.22;;;21.06;60.35
15529;BME280;7866;52.280;9.500;2023-07-13T06:32:44;100217.38;;;21.23;59.78
15529;BME280;7866;52.280;9.500;2023-07-13T06:37:45;100212.19;;;21.09;60.13
15529;BME280;7866;52.280;9.500;2023-07-13T06:42:48;100224.63;;;21.05;60.18
15529;BME280;7866;52.280;9.500;2023-07-13T06:47:50;100224.13;;;21.20;59.42
15529;BME280;7866;52.280;9.500;2023-07-13T06:52:52;100232.50;;;22.04;57.25
15529;BME280;7866;52.280;9.500;2023-07-13T06:57:55;100228.09;;;22.15;57.29
15529;BME280;7866;52.280;9.500;2023-07-13T07:02:57;100230.31;;;22.35;56.68
15529;BME280;7866;52.280;9.500;2023-07-13T07:07:58;100223.09;;;22.12;58.04
15529;BME280;7866;52.280;9.500;2023-07-13T07:13:03;100227.53;;;21.84;57.55
15529;BME280;7866;52.280;9.500;2023-07-13T07:18:04;100230.31;;;21.73;59.29
15529;BME280;7866;52.280;9.500;2023-07-13T07:23:07;100226.88;;;21.94;57.48
15529;BME280;7866;52.280;9.500;2023-07-13T07:28:10;100220.91;;;21.80;58.74
15529;BME280;7866;52.280;9.500;2023-07-13T07:33:12;100220.97;;;21.11;59.33
15529;BME280;7866;52.280;9.500;2023-07-13T07:38:14;100229.22;;;21.16;58.88
15529;BME280;7866;52.280;9.500;2023-07-13T07:43:17;100225.19;;;21.19;58.62
15529;BME280;7866;52.280;9.500;2023-07-13T07:48:19;100227.47;;;21.51;58.42
15529;BME280;7866;52.280;9.500;2023-07-13T07:53:21;100233.53;;;22.15;56.49
15529;BME280;7866;52.280;9.500;2023-07-13T07:58:24;100226.06;;;22.83;55.00
15529;BME280;7866;52.280;9.500;2023-07-13T08:03:25;100236.00;;;22.33;55.49
15529;BME280;7866;52.280;9.500;2023-07-13T08:08:27;100238.16;;;22.31;56.64
15529;BME280;7866;52.280;9.500;2023-07-13T08:13:30;100249.16;;;22.36;56.37
15529;BME280;7866;52.280;9.500;2023-07-13T08:18:32;100237.06;;;22.49;55.22
15529;BME280;7866;52.280;9.500;2023-07-13T08:23:33;100255.50;;;22.25;56.62
15529;BME280;7866;52.280;9.500;2023-07-13T08:28:36;100240.19;;;22.58;55.72
15529;BME280;7866;52.280;9.500;2023-07-13T08:33:38;100253.03;;;22.96;54.53
15529;BME280;7866;52.280;9.500;2023-07-13T08:38:41;100256.59;;;22.97;55.67
15529;BME280;7866;52.280;9.500;2023-07-13T08:43:46;100258.91;;;22.16;56.59
15529;BME280;7866;52.280;9.500;2023-07-13T08:48:52;100262.44;;;22.50;56.40
15529;BME280;7866;52.280;9.500;2023-07-13T08:53:57;100252.03;;;22.13;56.75
15529;BME280;7866;52.280;9.500;2023-07-13T08:59:06;100251.28;;;23.07;55.55
15529;BME280;7866;52.280;9.500;2023-07-13T09:04:14;100253.16;;;22.68;56.41
15529;BME280;7866;52.280;9.500;2023-07-13T09:09:23;100260.16;;;23.19;55.56
15529;BME280;7866;52.280;9.500;2023-07-13T09:14:42;100263.59;;;23.31;55.28
15529;BME280;7866;52.280;9.500;2023-07-13T09:19:47;100263.69;;;22.98;55.33
15529;BME280;7866;52.280;9.500;2023-07-13T09:24:58;100267.69;;;22.73;56.02
15529;BME280;7866;52.280;9.500;2023-07-13T09:30:17;100272.63;;;23.10;55.16
15529;BME280;7866;52.280;9.500;2023-07-13T09:35:26;100281.88;;;23.75;52.90
15529;BME280;7866;52.280;9.500;2023-07-13T09:40:36;100265.88;;;22.96;54.67
15529;BME280;7866;52.280;9.500;2023-07-13T09:45:45;100265.63;;;23.90;52.61
15529;BME280;7866;52.280;9.500;2023-07-13T09:50:48;100271.72;;;23.70;52.25
15529;BME280;7866;52.280;9.500;2023-07-13T09:55:51;100268.31;;;23.63;52.46
15529;BME280;7866;52.280;9.500;2023-07-13T10:00:58;100264.53;;;24.23;51.79
15529;BME280;7866;52.280;9.500;2023-07-13T10:06:10;100270.00;;;24.23;50.88
15529;BME280;7866;52.280;9.500;2023-07-13T10:11:17;100278.41;;;23.84;50.12
15529;BME280;7866;52.280;9.500;2023-07-13T10:16:23;100272.81;;;24.01;51.36
15529;BME280;7866;52.280;9.500;2023-07-13T10:21:28;100281.13;;;24.12;49.73
15529;BME280;7866;52.280;9.500;2023-07-13T10:26:33;100273.06;;;24.27;50.75
15529;BME280;7866;52.280;9.500;2023-07-13T10:31:38;100273.75;;;24.44;49.07
15529;BME280;7866;52.280;9.500;2023-07-13T10:36:42;100274.19;;;25.11;48.26
15529;BME280;7866;52.280;9.500;2023-07-13T10:41:46;100275.44;;;25.55;46.63
15529;BME280;7866;52.280;9.500;2023-07-13T10:46:54;100267.69;;;25.27;46.98
15529;BME280;7866;52.280;9.500;2023-07-13T10:51:56;100268.66;;;23.45;50.78
15529;BME280;7866;52.280;9.500;2023-07-13T10:57:14;100287.03;;;23.27;52.35
15529;BME280;7866;52.280;9.500;2023-07-13T11:02:25;100281.06;;;24.71;47.15
15529;BME280;7866;52.280;9.500;2023-07-13T11:07:30;100286.47;;;25.03;47.29
15529;BME280;7866;52.280;9.500;2023-07-13T11:12:53;100282.50;;;23.60;49.66
15529;BME280;7866;52.280;9.500;2023-07-13T11:17:56;100278.16;;;24.93;47.30
15529;BME280;7866;52.280;9.500;2023-07-13T11:23:19;100283.94;;;24.96;47.63
15529;BME280;7866;52.280;9.500;2023-07-13T11:28:24;100275.22;;;25.62;45.09
15529;BME280;7866;52.280;9.500;2023-07-13T11:33:54;100283.09;;;25.48;43.32
15529;BME280;7866;52.280;9.500;2023-07-13T11:39:02;100269.09;;;24.82;47.10
15529;BME280;7866;52.280;9.500;2023-07-13T11:44:12;100261.16;;;25.38;46.26
15529;BME280;7866;52.280;9.500;2023-07-13T11:49:18;100264.88;;;26.15;45.52
15529;BME280;7866;52.280;9.500;2023-07-13T11:54:24;100264.31;;;26.03;44.60
15529;BME280;7866;52.280;9.500;2023-07-13T11:59:29;100273.75;;;24.12;47.65
15529;BME280;7866;52.280;9.500;2023-07-13T12:04:34;100271.81;;;23.80;48.76
15529;BME280;7866;52.280;9.500;2023-07-13T12:09:36;100285.94;;;23.99;48.77
15529;BME280;7866;52.280;9.500;2023-07-13T12:14:37;100288.63;;;23.94;49.12
15529;BME280;7866;52.280;9.500;2023-07-13T12:19:41;100274.88;;;25.48;46.01
15529;BME280;7866;52.280;9.500;2023-07-13T12:24:43;100274.50;;;25.19;45.81
15529;BME280;7866;52.280;9.500;2023-07-13T12:29:50;100274.56;;;25.35;46.49
15529;BME280;7866;52.280;9.500;2023-07-13T12:34:57;100272.72;;;24.18;48.69
15529;BME280;7866;52.280;9.500;2023-07-13T12:39:58;100268.06;;;23.65;49.01
15529;BME280;7866;52.280;9.500;2023-07-13T12:45:03;100268.50;;;23.56;48.58
15529;BME280;7866;52.280;9.500;2023-07-13T12:50:15;100281.28;;;24.00;47.82
15529;BME280;7866;52.280;9.500;2023-07-13T12:55:20;100301.78;;;23.48;49.50
15529;BME280;7866;52.280;9.500;2023-07-13T13:00:24;100311.84;;;22.31;55.46
15529;BME280;7866;52.280;9.500;2023-07-13T13:05:28;100312.34;;;21.43;62.08
15529;BME280;7866;52.280;9.500;2023-07-13T13:10:30;100313.31;;;20.89;66.99
15529;BME280;7866;52.280;9.500;2023-07-13T13:15:32;100302.03;;;21.73;67.61
15529;BME280;7866;52.280;9.500;2023-07-13T13:20:35;100309.03;;;22.26;67.47
15529;BME280;7866;52.280;9.500;2023-07-13T13:25:37;100319.63;;;22.11;67.63
15529;BME280;7866;52.280;9.500;2023-07-13T13:30:38;100332.81;;;21.74;68.66
15529;BME280;7866;52.280;9.500;2023-07-13T13:35:43;100349.97;;;20.10;69.53
15529;BME280;7866;52.280;9.500;2023-07-13T13:40:45;100363.44;;;20.35;69.90
15529;BME280;7866;52.280;9.500;2023-07-13T13:45:47;100371.19;;;21.20;68.70
15529;BME280;7866;52.280;9.500;2023-07-13T13:50:50;100375.69;;;20.56;68.64
15529;BME280;7866;52.280;9.500;2023-07-13T13:55:52;100378.63;;;20.66;69.56
15529;BME280;7866;52.280;9.500;2023-07-13T14:00:53;100381.00;;;21.97;66.32
15529;BME280;7866;52.280;9.500;2023-07-13T14:05:56;100388.22;;;22.31;61.38
15529;BME280;7866;52.280;9.500;2023-07-13T14:10:58;100405.78;;;21.20;65.76
15529;BME280;7866;52.280;9.500;2023-07-13T14:16:00;100432.97;;;20.42;66.35
15529;BME280;7866;52.280;9.500;2023-07-13T14:21:03;100432.72;;;20.32;67.95
15529;BME280;7866;52.280;9.500;2023-07-13T14:26:09;100436.53;;;19.58;69.33
15529;BME280;7866;52.280;9.500;2023-07-13T14:31:13;100447.63;;;19.38;68.37
15529;BME280;7866;52.280;9.500;2023-07-13T14:36:26;100466.72;;;19.31;68.51
15529;BME280;7866;52.280;9.500;2023-07-13T14:41:29;100457.50;;;18.82;68.81
15529;BME280;7866;52.280;9.500;2023-07-13T14:46:32;100456.66;;;19.07;69.30
15529;BME280;7866;52.280;9.500;2023-07-13T14:51:36;100467.97;;;18.40;70.43
15529;BME280;7866;52.280;9.500;2023-07-13T14:56:38;100471.38;;;17.84;72.88
15529;BME280;7866;52.280;9.500;2023-07-13T15:01:40;100455.69;;;17.93;74.29
15529;BME280;7866;52.280;9.500;2023-07-13T15:06:54;100461.63;;;18.15;74.00
15529;BME280;7866;52.280;9.500;2023-07-13T15:11:58;100466.69;;;18.11;73.98
15529;BME280;7866;52.280;9.500;2023-07-13T15:16:59;100455.84;;;18.11;73.23
15529;BME280;7866;52.280;9.500;2023-07-13T15:22:03;100447.63;;;17.66;73.85
15529;BME280;7866;52.280;9.500;2023-07-13T15:27:10;100419.88;;;17.84;74.79
15529;BME280;7866;52.280;9.500;2023-07-13T15:32:13;100419.88;;;17.84;74.23
15529;BME280;7866;52.280;9.500;2023-07-13T15:37:16;100420.22;;;18.01;74.13
15529;BME280;7866;52.280;9.500;2023-07-13T15:42:19;100424.66;;;18.27;73.02
15529;BME280;7866;52.280;9.500;2023-07-13T15:47:21;100435.03;;;18.37;71.86
15529;BME280;7866;52.280;9.500;2023-07-13T15:52:24;100428.56;;;18.38;71.82
15529;BME280;7866;52.280;9.500;2023-07-13T15:57:26;100434.66;;;18.27;71.01
15529;BME280;7866;52.280;9.500;2023-07-13T16:02:28;100425.81;;;18.06;71.48
15529;BME280;7866;52.280;9.500;2023-07-13T16:07:31;100421.34;;;18.25;71.72
15529;BME280;7866;52.280;9.500;2023-07-13T16:12:32;100418.91;;;18.17;71.50
15529;BME280;7866;52.280;9.500;2023-07-13T16:17:35;100425.69;;;18.33;71.85
15529;BME280;7866;52.280;9.500;2023-07-13T16:22:38;100424.09;;;18.18;71.44
15529;BME280;7866;52.280;9.500;2023-07-13T16:27:40;100423.19;;;18.31;72.29
15529;BME280;7866;52.280;9.500;2023-07-13T16:32:42;100422.66;;;18.16;71.86
15529;BME280;7866;52.280;9.500;2023-07-13T16:37:45;100430.41;;;18.06;72.82
15529;BME280;7866;52.280;9.500;2023-07-13T16:42:49;100420.47;;;17.93;73.64
15529;BME280;7866;52.280;9.500;2023-07-13T16:47:52;100422.72;;;18.03;73.41
15529;BME280;7866;52.280;9.500;2023-07-13T16:52:55;100427.94;;;17.97;73.53
15529;BME280;7866;52.280;9.500;2023-07-13T16:57:59;100423.16;;;18.00;74.59
15529;BME280;7866;52.280;9.500;2023-07-13T17:03:05;100431.03;;;18.08;74.15
15529;BME280;7866;52.280;9.500;2023-07-13T17:08:13;100421.84;;;18.09;73.49
15529;BME280;7866;52.280;9.500;2023-07-13T17:13:16;100414.16;;;18.06;73.23
15529;BME280;7866;52.280;9.500;2023-07-13T17:18:18;100425.16;;;18.11;72.56
15529;BME280;7866;52.280;9.500;2023-07-13T17:23:23;100426.34;;;18.28;71.68
15529;BME280;7866;52.280;9.500;2023-07-13T17:28:25;100436.31;;;18.34;70.91
15529;BME280;7866;52.280;9.500;2023-07-13T17:33:30;100422.84;;;18.53;71.13
15529;BME280;7866;52.280;9.500;2023-07-13T17:38:37;100419.59;;;18.69;71.69
15529;BME280;7866;52.280;9.500;2023-07-13T17:43:40;100413.41;;;18.87;71.58
15529;BME280;7866;52.280;9.500;2023-07-13T17:48:43;100410.00;;;18.73;71.23
15529;BME280;7866;52.280;9.500;2023-07-13T17:53:46;100403.16;;;18.64;71.07
15529;BME280;7866;52.280;9.500;2023-07-13T17:58:48;100406.31;;;18.61;71.55
15529;BME280;7866;52.280;9.500;2023-07-13T18:03:51;100408.94;;;18.74;71.52
15529;BME280;7866;52.280;9.500;2023-07-13T18:09:00;100411.72;;;18.92;71.39
15529;BME280;7866;52.280;9.500;2023-07-13T18:14:02;100424.38;;;18.67;71.63
15529;BME280;7866;52.280;9.500;2023-07-13T18:19:15;100430.25;;;18.70;71.77
15529;BME280;7866;52.280;9.500;2023-07-13T18:24:23;100431.28;;;18.69;72.19
15529;BME280;7866;52.280;9.500;2023-07-13T18:29:26;100434.56;;;18.46;72.93
15529;BME280;7866;52.280;9.500;2023-07-13T18:34:28;100439.56;;;18.43;72.94
15529;BME280;7866;52.280;9.500;2023-07-13T18:39:31;100438.56;;;18.44;72.56
15529;BME280;7866;52.280;9.500;2023-07-13T18:44:32;100452.81;;;18.26;73.29
15529;BME280;7866;52.280;9.500;2023-07-13T18:49:34;100459.56;;;18.17;74.35
15529;BME280;7866;52.280;9.500;2023-07-13T18:54:38;100462.50;;;18.09;74.18
15529;BME280;7866;52.280;9.500;2023-07-13T18:59:40;100462.50;;;18.09;74.80
15529;BME280;7866;52.280;9.500;2023-07-13T19:04:42;100463.97;;;18.11;74.89
15529;BME280;7866;52.280;9.500;2023-07-13T19:09:45;100461.28;;;18.05;74.50
15529;BME280;7866;52.280;9.500;2023-07-13T19:14:47;100477.13;;;18.08;75.33
15529;BME280;7866;52.280;9.500;2023-07-13T19:19:49;100467.78;;;17.90;75.26
15529;BME280;7866;52.280;9.500;2023-07-13T19:24:52;100470.94;;;17.87;74.95
15529;BME280;7866;52.280;9.500;2023-07-13T19:29:54;100487.38;;;17.92;75.23
15529;BME280;7866;52.280;9.500;2023-07-13T19:34:56;100490.09;;;17.92;75.30
15529;BME280;7866;52.280;9.500;2023-07-13T19:39:59;100488.97;;;18.13;74.60
15529;BME280;7866;52.280;9.500;2023-07-13T19:45:01;100491.28;;;18.10;74.45
15529;BME280;7866;52.280;9.500;2023-07-13T19:50:04;100484.03;;;18.04;74.70
15529;BME280;7866;52.280;9.500;2023-07-13T19:55:10;100482.53;;;18.08;74.14
15529;BME280;7866;52.280;9.500;2023-07-13T20:00:14;100486.84;;;18.22;73.64
15529;BME280;7866;52.280;9.500;2023-07-13T20:05:19;100482.28;;;18.16;73.87
15529;BME280;7866;52.280;9.500;2023-07-13T20:10:24;100496.28;;;18.13;73.71
15529;BME280;7866;52.280;9.500;2023-07-13T20:15:29;100497.75;;;18.09;74.47
15529;BME280;7866;52.280;9.500;2023-07-13T20:20:35;100497.75;;;18.09;74.16
15529;BME280;7866;52.280;9.500;2023-07-13T20:25:39;100494.66;;;17.98;74.66
15529;BME280;7866;52.280;9.500;2023-07-13T20:30:42;100509.47;;;17.96;74.54
15529;BME280;7866;52.280;9.500;2023-07-13T20:35:46;100510.91;;;17.98;74.68
15529;BME280;7866;52.280;9.500;2023-07-13T20:40:49;100510.53;;;17.88;75.47
15529;BME280;7866;52.280;9.500;2023-07-13T20:45:56;100507.00;;;17.81;75.45
15529;BME280;7866;52.280;9.500;2023-07-13T20:50:59;100504.53;;;17.80;75.32
15529;BME280;7866;52.280;9.500;2023-07-13T20:56:11;100512.00;;;17.78;75.66
15529;BME280;7866;52.280;9.500;2023-07-13T21:01:15;100522.81;;;17.71;75.39
15529;BME280;7866;52.280;9.500;2023-07-13T21:06:18;100510.75;;;17.67;75.83
15529;BME280;7866;52.280;9.500;2023-07-13T21:11:22;100519.91;;;17.66;76.97
15529;BME280;7866;52.280;9.500;2023-07-13T21:16:25;100533.06;;;17.69;76.63
15529;BME280;7866;52.280;9.500;2023-07-13T21:21:27;100526.63;;;17.57;76.56
15529;BME280;7866;52.280;9.500;2023-07-13T21:26:31;100524.72;;;17.51;76.71
15529;BME280;7866;52.280;9.500;2023-07-13T21:31:34;100522.47;;;17.47;77.17
15529;BME280;7866;52.280;9.500;2023-07-13T21:36:36;100528.50;;;17.49;76.42
15529;BME280;7866;52.280;9.500;2023-07-13T21:41:40;100539.94;;;17.58;76.84
15529;BME280;7866;52.280;9.500;2023-07-13T21:46:42;100540.16;;;17.50;76.83
15529;BME280;7866;52.280;9.500;2023-07-13T21:51:43;100540.38;;;17.48;76.81
15529;BME280;7866;52.280;9.500;2023-07-13T21:56:47;100539.31;;;17.43;76.77
15529;BME280;7866;52.280;9.500;2023-07-13T22:01:49;100539.53;;;17.41;76.21
15529;BME280;7866;52.280;9.500;2023-07-13T22:06:51;100544.72;;;17.43;76.73
15529;BME280;7866;52.280;9.500;2023-07-13T22:11:57;100552.84;;;17.43;76.60
15529;BME280;7866;52.280;9.500;2023-07-13T22:16:58;100544.13;;;17.34;76.59
15529;BME280;7866;52.280;9.500;2023-07-13T22:22:00;100541.59;;;17.39;76.47
15529;BME280;7866;52.280;9.500;2023-07-13T22:27:03;100540.81;;;17.32;76.69
15529;BME280;7866;52.280;9.500;2023-07-13T22:32:08;100545.38;;;17.32;77.14
15529;BME280;7866;52.280;9.500;2023-07-13T22:37:11;100547.44;;;17.30;76.64
15529;BME280;7866;52.280;9.500;2023-07-13T22:42:14;100540.78;;;17.19;77.17
15529;BME280;7866;52.280;9.500;2023-07-13T22:47:16;100542.03;;;17.16;77.14
15529;BME280;7866;52.280;9.500;2023-07-13T22:52:20;100546.19;;;17.06;78.10
15529;BME280;7866;52.280;9.500;2023-07-13T22:57:24;100548.69;;;17.14;77.58
15529;BME280;7866;52.280;9.500;2023-07-13T23:02:25;100544.94;;;17.02;78.18
15529;BME280;7866;52.280;9.500;2023-07-13T23:07:27;100540.56;;;16.94;78.37
15529;BME280;7866;52.280;9.500;2023-07-13T23:12:31;100540.97;;;16.97;77.96
15529;BME280;7866;52.280;9.500;2023-07-13T23:17:32;100537.22;;;16.92;78.53
15529;BME280;7866;52.280;9.500;2023-07-13T23:22:34;100537.81;;;16.87;78.64
15529;BME280;7866;52.280;9.500;2023-07-13T23:27:37;100534.09;;;16.95;78.27
15529;BME280;7866;52.280;9.500;2023-07-13T23:32:39;100541.63;;;16.99;78.02
15529;BME280;7866;52.280;9.500;2023-07-13T23:37:42;100536.59;;;17.03;77.48
15529;BME280;7866;52.280;9.500;2023-07-13T23:42:45;100546.59;;;16.89;78.17
15529;BME280;7866;52.280;9.500;2023-07-13T23:47:49;100535.97;;;16.88;77.94
15529;BME280;7866;52.280;9.500;2023-07-13T23:52:51;100542.84;;;16.90;78.56
15529;BME280;7866;52.280;9.500;2023-07-13T23:57:59;100538.25;;;16.84;78.03
